createdAt,value
2019-03-25T00:00:01.769Z,0
2019-03-25T00:01:11.898Z,0
2019-03-25T00:02:22.006Z,0
2019-03-25T00:03:32.114Z,0
2019-03-25T00:04:42.229Z,0
2019-03-25T00:05:52.330Z,0
2019-03-25T00:07:02.532Z,0
2019-03-25T00:08:12.677Z,0
2019-03-25T00:09:22.788Z,0
2019-03-25T00:10:32.931Z,0
2019-03-25T00:11:43.056Z,0
2019-03-25T00:12:53.159Z,0
2019-03-25T00:14:03.286Z,0
2019-03-25T00:15:13.380Z,0
2019-03-25T00:16:23.478Z,0
2019-03-25T00:17:33.333Z,0
2019-03-25T00:18:43.471Z,0
2019-03-25T00:19:53.572Z,0
2019-03-25T00:21:03.689Z,0
2019-03-25T00:22:13.826Z,0
2019-03-25T00:23:24.159Z,0
2019-03-25T00:24:45.392Z,0
2019-03-25T00:25:55.843Z,0
2019-03-25T00:27:05.975Z,0
2019-03-25T00:28:18.542Z,0
2019-03-25T00:29:28.649Z,0
2019-03-25T00:30:38.758Z,0
2019-03-25T00:31:48.885Z,0
2019-03-25T00:32:58.995Z,0
2019-03-25T00:34:09.097Z,0
2019-03-25T00:35:19.212Z,0
2019-03-25T00:36:29.326Z,0
2019-03-25T00:37:39.433Z,0
2019-03-25T00:38:49.560Z,0
2019-03-25T00:39:59.419Z,0
2019-03-25T00:41:09.545Z,0
2019-03-25T00:42:19.645Z,0
2019-03-25T00:43:29.758Z,0
2019-03-25T00:44:39.874Z,0
2019-03-25T00:45:49.977Z,0
2019-03-25T00:47:00.110Z,0
2019-03-25T00:48:10.256Z,0
2019-03-25T00:49:20.382Z,0
2019-03-25T00:50:30.483Z,0
2019-03-25T00:51:40.610Z,0
2019-03-25T00:52:50.360Z,0
2019-03-25T00:54:00.471Z,0
2019-03-25T00:55:10.591Z,0
2019-03-25T00:56:20.713Z,0
2019-03-25T00:57:30.827Z,0
2019-03-25T00:58:40.933Z,0
2019-03-25T00:59:53.763Z,0
2019-03-25T01:01:03.870Z,0
2019-03-25T01:02:13.976Z,0
2019-03-25T01:03:24.082Z,0
2019-03-25T01:04:34.188Z,0
2019-03-25T01:05:44.294Z,0
2019-03-25T01:06:54.397Z,0
2019-03-25T01:08:04.517Z,0
2019-03-25T01:09:14.650Z,0
2019-03-25T01:10:24.767Z,0
2019-03-25T01:11:34.879Z,0
2019-03-25T01:12:56.383Z,0
2019-03-25T01:14:06.505Z,0
2019-03-25T01:15:16.612Z,0
2019-03-25T01:16:26.723Z,0
2019-03-25T01:17:36.483Z,0
2019-03-25T01:18:46.613Z,0
2019-03-25T01:19:56.723Z,0
2019-03-25T01:21:06.831Z,0
2019-03-25T01:22:16.941Z,0
2019-03-25T01:23:27.086Z,0
2019-03-25T01:24:37.206Z,0
2019-03-25T01:25:47.326Z,0
2019-03-25T01:26:57.457Z,0
2019-03-25T01:28:07.562Z,0
2019-03-25T01:29:17.667Z,0
2019-03-25T01:30:27.782Z,0
2019-03-25T01:31:37.888Z,0
2019-03-25T01:32:47.998Z,0
2019-03-25T01:33:58.118Z,0
2019-03-25T01:35:08.234Z,0
2019-03-25T01:36:18.350Z,0
2019-03-25T01:37:28.468Z,0
2019-03-25T01:38:38.589Z,0
2019-03-25T01:39:48.702Z,0
2019-03-25T01:40:58.821Z,0
2019-03-25T01:42:11.221Z,0
2019-03-25T01:43:21.666Z,0
2019-03-25T01:44:31.824Z,0
2019-03-25T01:45:42.156Z,0
2019-03-25T01:46:52.010Z,0
2019-03-25T01:48:02.116Z,0
2019-03-25T01:49:12.272Z,0
2019-03-25T01:50:22.378Z,0
2019-03-25T01:51:32.633Z,0
2019-03-25T01:52:42.758Z,0
2019-03-25T01:53:52.870Z,0
2019-03-25T01:55:12.912Z,0
2019-03-25T01:56:23.415Z,0
2019-03-25T01:57:33.515Z,0
2019-03-25T01:58:43.633Z,0
2019-03-25T01:59:53.481Z,0
2019-03-25T02:01:03.588Z,0
2019-03-25T02:02:13.704Z,0
2019-03-25T02:03:23.824Z,0
2019-03-25T02:04:33.928Z,0
2019-03-25T02:05:44.104Z,0
2019-03-25T02:06:54.196Z,0
2019-03-25T02:08:04.291Z,0
2019-03-25T02:09:14.394Z,0
2019-03-25T02:10:24.500Z,0
2019-03-25T02:11:34.611Z,0
2019-03-25T02:12:44.727Z,0
2019-03-25T02:13:54.843Z,0
2019-03-25T02:15:05.122Z,0
2019-03-25T02:16:14.968Z,0
2019-03-25T02:17:25.084Z,0
2019-03-25T02:18:34.939Z,0
2019-03-25T02:19:45.048Z,0
2019-03-25T02:20:55.175Z,0
2019-03-25T02:22:05.268Z,0
2019-03-25T02:23:16.076Z,0
2019-03-25T02:24:26.255Z,0
2019-03-25T02:25:36.350Z,0
2019-03-25T02:26:46.469Z,0
2019-03-25T02:27:56.573Z,0
2019-03-25T02:29:06.678Z,0
2019-03-25T02:30:16.802Z,0
2019-03-25T02:31:27.000Z,0
2019-03-25T02:32:37.116Z,0
2019-03-25T02:33:47.252Z,0
2019-03-25T02:34:57.374Z,0
2019-03-25T02:36:07.490Z,0
2019-03-25T02:37:17.610Z,0
2019-03-25T02:38:27.714Z,0
2019-03-25T02:39:37.866Z,0
2019-03-25T02:40:48.176Z,0
2019-03-25T02:41:58.049Z,0
2019-03-25T02:43:08.211Z,0
2019-03-25T02:44:18.078Z,0
2019-03-25T02:45:28.287Z,0
2019-03-25T02:46:38.401Z,0
2019-03-25T02:47:48.577Z,0
2019-03-25T02:48:58.691Z,0
2019-03-25T02:50:08.810Z,0
2019-03-25T02:51:18.955Z,0
2019-03-25T02:52:29.082Z,0
2019-03-25T02:53:39.247Z,0
2019-03-25T02:54:49.364Z,0
2019-03-25T02:55:59.561Z,0
2019-03-25T02:57:09.758Z,0
2019-03-25T02:58:19.878Z,0
2019-03-25T02:59:29.993Z,0
2019-03-25T03:00:40.135Z,0
2019-03-25T03:01:50.244Z,0
2019-03-25T03:03:00.113Z,0
2019-03-25T03:04:10.259Z,0
2019-03-25T03:05:20.368Z,0
2019-03-25T03:06:30.485Z,0
2019-03-25T03:07:40.596Z,0
2019-03-25T03:08:54.590Z,0
2019-03-25T03:10:04.717Z,0
2019-03-25T03:11:14.585Z,0
2019-03-25T03:12:24.410Z,0
2019-03-25T03:13:34.250Z,0
2019-03-25T03:14:44.374Z,0
2019-03-25T03:15:54.512Z,0
2019-03-25T03:17:04.636Z,0
2019-03-25T03:18:14.848Z,0
2019-03-25T03:19:24.970Z,0
2019-03-25T03:20:35.086Z,0
2019-03-25T03:21:45.196Z,0
2019-03-25T03:22:55.403Z,0
2019-03-25T03:24:05.527Z,0
2019-03-25T03:25:15.643Z,0
2019-03-25T03:26:25.779Z,0
2019-03-25T03:27:37.382Z,0
2019-03-25T03:28:47.484Z,0
2019-03-25T03:29:57.604Z,0
2019-03-25T03:31:07.845Z,0
2019-03-25T03:32:17.987Z,0
2019-03-25T03:33:28.199Z,0
2019-03-25T03:34:38.361Z,0
2019-03-25T03:35:51.301Z,0
2019-03-25T03:37:01.423Z,0
2019-03-25T03:38:11.758Z,0
2019-03-25T03:39:21.893Z,0
2019-03-25T03:40:32.017Z,0
2019-03-25T03:41:42.138Z,0
2019-03-25T03:42:52.238Z,0
2019-03-25T03:44:05.565Z,0
2019-03-25T03:45:15.664Z,0
2019-03-25T03:46:25.791Z,0
2019-03-25T03:47:35.909Z,0
2019-03-25T03:48:45.661Z,0
2019-03-25T03:49:55.768Z,0
2019-03-25T03:51:05.884Z,0
2019-03-25T03:52:15.994Z,0
2019-03-25T03:53:26.151Z,0
2019-03-25T03:54:36.283Z,0
2019-03-25T03:55:46.395Z,0
2019-03-25T03:56:56.538Z,0
2019-03-25T03:58:06.772Z,0
2019-03-25T03:59:16.896Z,0
2019-03-25T04:00:27.045Z,0
2019-03-25T04:01:37.216Z,0
2019-03-25T04:02:47.327Z,0
2019-03-25T04:03:57.470Z,0
2019-03-25T04:05:07.889Z,0
2019-03-25T04:06:18.017Z,0
2019-03-25T04:07:28.139Z,0
2019-03-25T04:08:38.291Z,0
2019-03-25T04:09:48.477Z,0
2019-03-25T04:10:58.621Z,0
2019-03-25T04:12:08.755Z,0
2019-03-25T04:13:18.655Z,0
2019-03-25T04:14:28.778Z,0
2019-03-25T04:15:38.916Z,0
2019-03-25T04:16:49.026Z,0
2019-03-25T04:17:59.144Z,0
2019-03-25T04:19:09.278Z,0
2019-03-25T04:20:19.414Z,0
2019-03-25T04:21:29.548Z,0
2019-03-25T04:22:39.309Z,0
2019-03-25T04:23:51.293Z,0
2019-03-25T04:25:01.408Z,0
2019-03-25T04:26:27.152Z,0
2019-03-25T04:27:37.768Z,0
2019-03-25T04:28:47.877Z,0
2019-03-25T04:29:58.005Z,0
2019-03-25T04:31:08.251Z,0
2019-03-25T04:32:18.360Z,0
2019-03-25T04:33:28.484Z,0
2019-03-25T04:34:38.607Z,0
2019-03-25T04:35:48.740Z,0
2019-03-25T04:36:58.883Z,0
2019-03-25T04:38:08.998Z,0
2019-03-25T04:39:19.126Z,0
2019-03-25T04:40:29.254Z,0
2019-03-25T04:41:39.412Z,0
2019-03-25T04:42:49.513Z,0
2019-03-25T04:44:01.762Z,0
2019-03-25T04:45:11.862Z,0
2019-03-25T04:46:21.964Z,0
2019-03-25T04:47:32.074Z,0
2019-03-25T04:48:42.180Z,4
2019-03-25T04:49:52.276Z,0
2019-03-25T04:51:02.196Z,4
2019-03-25T04:52:12.308Z,4
2019-03-25T04:53:22.414Z,4
2019-03-25T04:54:32.581Z,8
2019-03-25T04:55:42.678Z,8
2019-03-25T04:56:52.792Z,8
2019-03-25T04:58:02.922Z,12
2019-03-25T04:59:12.853Z,12
2019-03-25T05:00:22.974Z,16
2019-03-25T05:01:33.080Z,16
2019-03-25T05:02:43.218Z,20
2019-03-25T05:03:52.985Z,28
2019-03-25T05:05:03.132Z,24
2019-03-25T05:06:13.261Z,36
2019-03-25T05:07:23.379Z,32
2019-03-25T05:08:33.489Z,32
2019-03-25T05:09:43.606Z,32
2019-03-25T05:10:53.733Z,36
2019-03-25T05:12:03.829Z,32
2019-03-25T05:13:13.931Z,52
2019-03-25T05:14:24.045Z,52
2019-03-25T05:15:34.157Z,56
2019-03-25T05:16:44.256Z,48
2019-03-25T05:17:54.375Z,64
2019-03-25T05:19:04.534Z,72
2019-03-25T05:20:14.654Z,60
2019-03-25T05:21:24.830Z,60
2019-03-25T05:22:35.040Z,64
2019-03-25T05:23:44.776Z,68
2019-03-25T05:24:54.877Z,72
2019-03-25T05:26:05.008Z,92
2019-03-25T05:27:15.118Z,84
2019-03-25T05:28:25.282Z,100
2019-03-25T05:29:35.031Z,124
2019-03-25T05:30:45.177Z,140
2019-03-25T05:31:55.300Z,180
2019-03-25T05:33:05.407Z,212
2019-03-25T05:34:15.504Z,268
2019-03-25T05:35:25.618Z,312
2019-03-25T05:36:35.720Z,360
2019-03-25T05:37:45.835Z,348
2019-03-25T05:38:55.948Z,348
2019-03-25T05:40:06.060Z,368
2019-03-25T05:41:16.177Z,368
2019-03-25T05:42:26.291Z,384
2019-03-25T05:43:36.405Z,408
2019-03-25T05:44:46.500Z,392
2019-03-25T05:45:56.657Z,448
2019-03-25T05:47:06.772Z,512
2019-03-25T05:48:16.878Z,752
2019-03-25T05:49:27.002Z,740
2019-03-25T05:50:37.115Z,1112
2019-03-25T05:51:47.214Z,972
2019-03-25T05:52:57.321Z,1412
2019-03-25T05:54:07.443Z,1284
2019-03-25T05:55:17.544Z,1176
2019-03-25T05:56:27.702Z,1300
2019-03-25T05:57:37.798Z,1144
2019-03-25T05:58:47.653Z,1108
2019-03-25T05:59:57.498Z,1084
2019-03-25T06:01:07.615Z,900
2019-03-25T06:02:17.361Z,964
2019-03-25T06:03:27.470Z,868
2019-03-25T06:04:37.571Z,768
2019-03-25T06:05:47.675Z,748
2019-03-25T06:06:59.458Z,676
2019-03-25T06:08:09.577Z,596
2019-03-25T06:09:19.675Z,580
2019-03-25T06:10:29.773Z,516
2019-03-25T06:11:39.890Z,508
2019-03-25T06:12:50.017Z,356
2019-03-25T06:14:00.133Z,392
2019-03-25T06:15:10.275Z,544
2019-03-25T06:16:20.383Z,700
2019-03-25T06:17:30.499Z,1084
2019-03-25T06:18:40.608Z,1628
2019-03-25T06:19:50.736Z,1744
2019-03-25T06:21:00.829Z,1228
2019-03-25T06:22:10.939Z,1032
2019-03-25T06:23:21.034Z,932
2019-03-25T06:24:31.154Z,980
2019-03-25T06:25:41.259Z,1384
2019-03-25T06:26:51.588Z,1732
2019-03-25T06:28:01.705Z,1976
2019-03-25T06:29:11.808Z,2308
2019-03-25T06:30:21.570Z,2160
2019-03-25T06:31:31.672Z,2224
2019-03-25T06:32:41.452Z,2320
2019-03-25T06:33:51.583Z,2536
2019-03-25T06:35:01.739Z,2640
2019-03-25T06:36:11.867Z,2336
2019-03-25T06:37:21.976Z,2532
2019-03-25T06:38:32.073Z,2596
2019-03-25T06:39:42.184Z,2596
2019-03-25T06:40:54.086Z,2696
2019-03-25T06:42:04.183Z,2668
2019-03-25T06:43:14.298Z,3724
2019-03-25T06:44:24.171Z,4356
2019-03-25T06:45:34.299Z,5632
2019-03-25T06:46:44.413Z,5856
2019-03-25T06:47:54.518Z,6532
2019-03-25T06:49:04.626Z,4724
2019-03-25T06:50:14.482Z,4052
2019-03-25T06:51:24.584Z,3476
2019-03-25T06:52:34.684Z,2948
2019-03-25T06:53:44.805Z,2840
2019-03-25T06:54:54.905Z,3048
2019-03-25T06:56:05.009Z,3548
2019-03-25T06:57:25.109Z,2740
2019-03-25T06:58:35.616Z,1692
2019-03-25T06:59:45.480Z,1720
2019-03-25T07:00:55.590Z,2740
2019-03-25T07:02:05.700Z,2052
2019-03-25T07:03:15.815Z,1952
2019-03-25T07:04:25.929Z,4152
2019-03-25T07:05:36.067Z,4960
2019-03-25T07:06:46.180Z,3656
2019-03-25T07:07:56.044Z,4060
2019-03-25T07:09:06.151Z,5012
2019-03-25T07:10:16.279Z,5720
2019-03-25T07:11:26.393Z,4584
2019-03-25T07:12:36.513Z,7044
2019-03-25T07:13:46.624Z,5452
2019-03-25T07:14:56.755Z,5812
2019-03-25T07:16:06.876Z,5780
2019-03-25T07:17:17.001Z,7772
2019-03-25T07:18:27.099Z,7096
2019-03-25T07:19:37.215Z,4892
2019-03-25T07:20:47.361Z,5064
2019-03-25T07:21:57.484Z,5864
2019-03-25T07:23:07.600Z,8848
2019-03-25T07:24:17.708Z,8484
2019-03-25T07:25:27.846Z,8096
2019-03-25T07:26:37.970Z,7800
2019-03-25T07:27:48.086Z,10284
2019-03-25T07:28:58.199Z,8636
2019-03-25T07:30:08.323Z,10864
2019-03-25T07:31:19.364Z,9560
2019-03-25T07:32:29.482Z,9652
2019-03-25T07:33:39.833Z,8280
2019-03-25T07:34:49.934Z,6496
2019-03-25T07:36:00.062Z,5956
2019-03-25T07:37:10.176Z,5856
2019-03-25T07:38:20.289Z,5152
2019-03-25T07:39:30.399Z,5544
2019-03-25T07:40:40.517Z,5332
2019-03-25T07:41:50.638Z,5036
2019-03-25T07:43:00.516Z,6868
2019-03-25T07:44:11.294Z,6668
2019-03-25T07:45:21.414Z,7852
2019-03-25T07:46:31.561Z,7740
2019-03-25T07:47:41.428Z,7456
2019-03-25T07:48:51.553Z,8368
2019-03-25T07:50:01.670Z,6428
2019-03-25T07:51:11.823Z,7688
2019-03-25T07:52:21.700Z,7572
2019-03-25T07:53:31.849Z,6808
2019-03-25T07:54:41.988Z,9036
2019-03-25T07:55:52.146Z,10656
2019-03-25T07:57:02.322Z,13696
2019-03-25T07:58:12.595Z,10928
2019-03-25T07:59:25.107Z,6624
2019-03-25T08:00:35.230Z,5300
2019-03-25T08:01:45.431Z,7632
2019-03-25T08:02:55.665Z,6024
2019-03-25T08:04:05.887Z,5804
2019-03-25T08:05:16.067Z,8060
2019-03-25T08:06:26.191Z,6868
2019-03-25T08:07:36.401Z,5856
2019-03-25T08:08:46.524Z,5780
2019-03-25T08:09:57.415Z,4608
2019-03-25T08:11:07.594Z,4952
2019-03-25T08:12:17.784Z,5388
2019-03-25T08:13:28.251Z,6128
2019-03-25T08:14:38.383Z,6344
2019-03-25T08:15:48.618Z,4484
2019-03-25T08:16:58.760Z,3632
2019-03-25T08:18:08.885Z,5040
2019-03-25T08:19:19.017Z,6096
2019-03-25T08:20:29.141Z,5744
2019-03-25T08:21:39.254Z,7268
2019-03-25T08:22:49.397Z,6284
2019-03-25T08:23:59.565Z,7032
2019-03-25T08:25:09.688Z,6300
2019-03-25T08:26:19.963Z,7556
2019-03-25T08:27:30.109Z,6840
2019-03-25T08:28:40.306Z,7188
2019-03-25T08:29:50.447Z,9504
2019-03-25T08:31:00.586Z,11672
2019-03-25T08:32:10.457Z,18400
2019-03-25T08:33:20.590Z,17536
2019-03-25T08:34:30.717Z,41152
2019-03-25T08:35:40.587Z,38304
2019-03-25T08:36:50.708Z,46336
2019-03-25T08:38:00.827Z,50560
2019-03-25T08:39:10.943Z,32544
2019-03-25T08:40:21.066Z,16992
2019-03-25T08:41:31.192Z,13856
2019-03-25T08:42:41.395Z,9580
2019-03-25T08:43:56.545Z,6500
2019-03-25T08:45:08.059Z,8196
2019-03-25T08:46:20.376Z,7072
2019-03-25T08:47:34.681Z,9540
2019-03-25T08:48:51.396Z,12656
2019-03-25T08:50:03.166Z,24864
2019-03-25T08:51:14.706Z,30528
2019-03-25T08:52:24.829Z,22656
2019-03-25T08:53:34.996Z,46912
2019-03-25T08:54:45.400Z,45728
2019-03-25T08:55:55.526Z,45504
2019-03-25T08:57:05.703Z,47168
2019-03-25T08:58:19.684Z,47264
2019-03-25T08:59:31.829Z,19840
2019-03-25T09:00:41.958Z,48160
2019-03-25T09:01:52.097Z,53696
2019-03-25T09:03:02.243Z,52064
2019-03-25T09:04:12.376Z,50528
2019-03-25T09:05:27.566Z,52128
2019-03-25T09:06:38.681Z,50816
2019-03-25T09:07:48.800Z,13900
2019-03-25T09:08:58.912Z,40384
2019-03-25T09:10:09.024Z,44960
2019-03-25T09:11:19.387Z,48960
2019-03-25T09:12:29.750Z,44832
2019-03-25T09:13:39.883Z,50368
2019-03-25T09:14:50.212Z,34848
2019-03-25T09:16:00.334Z,16928
2019-03-25T09:17:11.453Z,20544
2019-03-25T09:18:21.582Z,13856
2019-03-25T09:19:31.840Z,15168
2019-03-25T09:20:41.966Z,10500
2019-03-25T09:21:52.092Z,11116
2019-03-25T09:23:02.227Z,14336
2019-03-25T09:24:12.359Z,13480
2019-03-25T09:25:22.501Z,14208
2019-03-25T09:26:32.625Z,18528
2019-03-25T09:27:42.746Z,11520
2019-03-25T09:28:53.130Z,12576
2019-03-25T09:30:05.811Z,16512
2019-03-25T09:31:15.678Z,36704
2019-03-25T09:32:25.811Z,11224
2019-03-25T09:33:35.954Z,11684
2019-03-25T09:34:45.848Z,11384
2019-03-25T09:35:56.403Z,10236
2019-03-25T09:37:06.679Z,8676
2019-03-25T09:38:16.806Z,8068
2019-03-25T09:39:26.937Z,10488
2019-03-25T09:40:37.077Z,9976
2019-03-25T09:41:47.272Z,8020
2019-03-25T09:42:57.408Z,7428
2019-03-25T09:44:07.521Z,7292
2019-03-25T09:45:17.626Z,6916
2019-03-25T09:46:27.750Z,7396
2019-03-25T09:47:40.276Z,6952
2019-03-25T09:48:50.389Z,6276
2019-03-25T09:50:00.502Z,5304
2019-03-25T09:51:10.673Z,4644
2019-03-25T09:52:20.784Z,4668
2019-03-25T09:53:30.890Z,6400
2019-03-25T09:54:40.994Z,8200
2019-03-25T09:55:51.110Z,9932
2019-03-25T09:57:01.231Z,10784
2019-03-25T09:58:11.379Z,11492
2019-03-25T09:59:21.492Z,8700
2019-03-25T10:00:31.610Z,5460
2019-03-25T10:01:41.737Z,3556
2019-03-25T10:02:51.892Z,3272
2019-03-25T10:04:01.999Z,3096
2019-03-25T10:05:12.117Z,3448
2019-03-25T10:06:22.237Z,4832
2019-03-25T10:07:33.365Z,5692
2019-03-25T10:08:43.508Z,6100
2019-03-25T10:09:53.629Z,7588
2019-03-25T10:11:03.747Z,8780
2019-03-25T10:12:13.862Z,8576
2019-03-25T10:13:23.986Z,7924
2019-03-25T10:14:34.108Z,8868
2019-03-25T10:15:44.238Z,9868
2019-03-25T10:16:54.353Z,8236
2019-03-25T10:18:04.487Z,7776
2019-03-25T10:19:17.358Z,7960
2019-03-25T10:20:27.473Z,6156
2019-03-25T10:21:37.332Z,9916
2019-03-25T10:22:47.450Z,13336
2019-03-25T10:23:57.788Z,14400
2019-03-25T10:25:07.993Z,19200
2019-03-25T10:26:18.134Z,17824
2019-03-25T10:27:28.298Z,14688
2019-03-25T10:28:50.342Z,12056
2019-03-25T10:30:00.492Z,8756
2019-03-25T10:31:10.825Z,6544
2019-03-25T10:32:20.970Z,6600
2019-03-25T10:33:31.092Z,6352
2019-03-25T10:34:41.236Z,7216
2019-03-25T10:35:51.424Z,11304
2019-03-25T10:37:01.553Z,13316
2019-03-25T10:38:23.874Z,15552
2019-03-25T10:39:33.752Z,15168
2019-03-25T10:40:43.880Z,23040
2019-03-25T10:41:54.024Z,46464
2019-03-25T10:43:04.148Z,28544
2019-03-25T10:44:14.265Z,34432
2019-03-25T10:45:24.383Z,62752
2019-03-25T10:46:34.523Z,62848
2019-03-25T10:47:44.646Z,64320
2019-03-25T10:48:54.788Z,57216
2019-03-25T10:50:05.064Z,38112
2019-03-25T10:51:15.205Z,21024
2019-03-25T10:52:25.321Z,21632
2019-03-25T10:53:35.469Z,16032
2019-03-25T10:54:46.164Z,26560
2019-03-25T10:55:58.886Z,51360
2019-03-25T10:57:09.028Z,28736
2019-03-25T10:58:18.952Z,67072
2019-03-25T10:59:29.086Z,70112
2019-03-25T11:00:39.231Z,69984
2019-03-25T11:01:49.361Z,22112
2019-03-25T11:02:59.466Z,25248
2019-03-25T11:04:09.616Z,22336
2019-03-25T11:05:19.752Z,11604
2019-03-25T11:06:29.937Z,16128
2019-03-25T11:07:40.577Z,17056
2019-03-25T11:08:50.735Z,13984
2019-03-25T11:10:00.929Z,10872
2019-03-25T11:11:11.348Z,9772
2019-03-25T11:12:21.491Z,10948
2019-03-25T11:13:31.621Z,17728
2019-03-25T11:14:41.731Z,15360
2019-03-25T11:15:51.871Z,11736
2019-03-25T11:17:01.990Z,10324
2019-03-25T11:18:13.065Z,15488
2019-03-25T11:19:23.207Z,25312
2019-03-25T11:20:33.343Z,47456
2019-03-25T11:21:43.493Z,11180
2019-03-25T11:22:53.622Z,9844
2019-03-25T11:24:03.816Z,13040
2019-03-25T11:25:13.965Z,35552
2019-03-25T11:26:24.091Z,36352
2019-03-25T11:27:34.200Z,34080
2019-03-25T11:28:44.323Z,46848
2019-03-25T11:29:54.460Z,58848
2019-03-25T11:31:04.600Z,61888
2019-03-25T11:32:14.443Z,29248
2019-03-25T11:33:24.596Z,26848
2019-03-25T11:34:34.829Z,26464
2019-03-25T11:35:44.696Z,65280
2019-03-25T11:36:54.895Z,51328
2019-03-25T11:38:05.041Z,39712
2019-03-25T11:39:15.379Z,28352
2019-03-25T11:40:25.255Z,12212
2019-03-25T11:41:35.396Z,9852
2019-03-25T11:42:45.563Z,11708
2019-03-25T11:43:55.728Z,16512
2019-03-25T11:45:05.876Z,25440
2019-03-25T11:46:15.813Z,17760
2019-03-25T11:47:26.304Z,14880
2019-03-25T11:48:36.461Z,17056
2019-03-25T11:49:47.079Z,27520
2019-03-25T11:50:57.239Z,22176
2019-03-25T11:52:07.380Z,55968
2019-03-25T11:53:17.538Z,18400
2019-03-25T11:54:27.685Z,15872
2019-03-25T11:55:37.801Z,18976
2019-03-25T11:56:47.938Z,20224
2019-03-25T11:57:58.109Z,26176
2019-03-25T11:59:18.242Z,20960
2019-03-25T12:00:30.664Z,15520
2019-03-25T12:01:40.803Z,28320
2019-03-25T12:02:50.940Z,21408
2019-03-25T12:04:01.082Z,23488
2019-03-25T12:05:11.242Z,21856
2019-03-25T12:06:21.393Z,29984
2019-03-25T12:07:31.591Z,16800
2019-03-25T12:08:41.736Z,16544
2019-03-25T12:09:51.863Z,16896
2019-03-25T12:11:02.007Z,12792
2019-03-25T12:12:12.193Z,16288
2019-03-25T12:13:22.363Z,14464
2019-03-25T12:14:32.528Z,20032
2019-03-25T12:15:42.646Z,17056
2019-03-25T12:16:52.795Z,13556
2019-03-25T12:18:03.044Z,10764
2019-03-25T12:19:13.157Z,11600
2019-03-25T12:20:23.396Z,9056
2019-03-25T12:21:33.521Z,17216
2019-03-25T12:22:43.674Z,31616
2019-03-25T12:23:53.799Z,63040
2019-03-25T12:25:03.943Z,62080
2019-03-25T12:26:14.081Z,69952
2019-03-25T12:27:24.391Z,77952
2019-03-25T12:28:34.696Z,76416
2019-03-25T12:29:45.099Z,38880
2019-03-25T12:30:55.220Z,20064
2019-03-25T12:32:05.427Z,13004
2019-03-25T12:33:15.552Z,8732
2019-03-25T12:34:25.991Z,6900
2019-03-25T12:35:36.323Z,8100
2019-03-25T12:36:46.500Z,15328
2019-03-25T12:37:56.661Z,14400
2019-03-25T12:39:06.795Z,15072
2019-03-25T12:40:16.976Z,15328
2019-03-25T12:41:27.142Z,19424
2019-03-25T12:42:37.295Z,26208
2019-03-25T12:43:47.204Z,64128
2019-03-25T12:44:57.340Z,49824
2019-03-25T12:46:07.477Z,46464
2019-03-25T12:47:17.653Z,24768
2019-03-25T12:48:27.785Z,14880
2019-03-25T12:49:37.913Z,40768
2019-03-25T12:50:48.074Z,23872
2019-03-25T12:51:58.272Z,29984
2019-03-25T12:53:08.463Z,18368
2019-03-25T12:54:18.589Z,26048
2019-03-25T12:55:28.731Z,33120
2019-03-25T12:56:38.909Z,20960
2019-03-25T12:57:49.093Z,43904
2019-03-25T12:58:59.259Z,26080
2019-03-25T13:00:09.453Z,22496
2019-03-25T13:01:19.625Z,27968
2019-03-25T13:02:29.782Z,56800
2019-03-25T13:03:40.733Z,15232
2019-03-25T13:04:51.019Z,26496
2019-03-25T13:06:01.252Z,60416
2019-03-25T13:07:11.393Z,62496
2019-03-25T13:08:32.528Z,64896
2019-03-25T13:09:42.884Z,19904
2019-03-25T13:10:53.044Z,13640
2019-03-25T13:12:03.193Z,10236
2019-03-25T13:13:13.313Z,7972
2019-03-25T13:14:23.460Z,11096
2019-03-25T13:15:33.604Z,34656
2019-03-25T13:16:43.739Z,14176
2019-03-25T13:17:53.874Z,9264
2019-03-25T13:19:04.032Z,33152
2019-03-25T13:20:14.160Z,8372
2019-03-25T13:21:24.307Z,5516
2019-03-25T13:22:34.440Z,3364
2019-03-25T13:23:44.223Z,2472
2019-03-25T13:24:54.368Z,2336
2019-03-25T13:26:04.530Z,2904
2019-03-25T13:27:14.670Z,3732
2019-03-25T13:28:24.804Z,3600
2019-03-25T13:29:34.957Z,3600
2019-03-25T13:30:45.087Z,3516
2019-03-25T13:31:55.204Z,3236
2019-03-25T13:33:05.367Z,4472
2019-03-25T13:34:15.537Z,6652
2019-03-25T13:35:25.692Z,8444
2019-03-25T13:36:35.824Z,10764
2019-03-25T13:37:45.984Z,11284
2019-03-25T13:38:57.934Z,11584
2019-03-25T13:40:08.141Z,11512
2019-03-25T13:41:18.282Z,11540
2019-03-25T13:42:28.421Z,10420
2019-03-25T13:43:38.556Z,9060
2019-03-25T13:44:48.723Z,7044
2019-03-25T13:46:09.799Z,4748
2019-03-25T13:47:19.956Z,5276
2019-03-25T13:48:30.121Z,5668
2019-03-25T13:49:40.259Z,7844
2019-03-25T13:50:50.496Z,7068
2019-03-25T13:52:00.642Z,8192
2019-03-25T13:53:10.746Z,11940
2019-03-25T13:54:20.662Z,18592
2019-03-25T13:55:31.660Z,45056
2019-03-25T13:56:41.793Z,50048
2019-03-25T13:57:51.924Z,45696
2019-03-25T13:59:02.058Z,19392
2019-03-25T14:00:12.264Z,8812
2019-03-25T14:01:22.431Z,42656
2019-03-25T14:02:32.599Z,9116
2019-03-25T14:03:42.758Z,6992
2019-03-25T14:04:52.889Z,41344
2019-03-25T14:06:03.035Z,13100
2019-03-25T14:07:13.216Z,9472
2019-03-25T14:08:23.388Z,9356
2019-03-25T14:09:33.548Z,13532
2019-03-25T14:10:43.699Z,37504
2019-03-25T14:11:53.862Z,9796
2019-03-25T14:13:04.258Z,9464
2019-03-25T14:14:14.454Z,47232
2019-03-25T14:15:24.625Z,43840
2019-03-25T14:16:34.766Z,41408
2019-03-25T14:17:44.561Z,42080
2019-03-25T14:18:54.703Z,41920
2019-03-25T14:20:04.976Z,41248
2019-03-25T14:21:14.856Z,42976
2019-03-25T14:22:25.019Z,45792
2019-03-25T14:23:35.158Z,10856
2019-03-25T14:24:45.302Z,45920
2019-03-25T14:25:55.531Z,7560
2019-03-25T14:27:05.478Z,5960
2019-03-25T14:28:15.690Z,6636
2019-03-25T14:29:25.849Z,6732
2019-03-25T14:30:35.987Z,26272
2019-03-25T14:31:46.165Z,6500
2019-03-25T14:32:56.317Z,32352
2019-03-25T14:34:06.460Z,7880
2019-03-25T14:35:16.610Z,5748
2019-03-25T14:36:26.748Z,6688
2019-03-25T14:37:36.629Z,4940
2019-03-25T14:38:46.835Z,4212
2019-03-25T14:39:56.948Z,36192
2019-03-25T14:41:07.085Z,37632
2019-03-25T14:42:17.226Z,10256
2019-03-25T14:43:27.357Z,8328
2019-03-25T14:44:37.499Z,36672
2019-03-25T14:45:47.654Z,36128
2019-03-25T14:46:57.786Z,37920
2019-03-25T14:48:07.677Z,20480
2019-03-25T14:49:17.831Z,36096
2019-03-25T14:50:27.974Z,14144
2019-03-25T14:51:38.116Z,19808
2019-03-25T14:52:48.260Z,18752
2019-03-25T14:53:58.615Z,8056
2019-03-25T14:55:08.806Z,8732
2019-03-25T14:56:18.949Z,27872
2019-03-25T14:57:28.831Z,35456
2019-03-25T14:58:38.989Z,10460
2019-03-25T14:59:50.148Z,16896
2019-03-25T15:01:00.381Z,33408
2019-03-25T15:02:10.575Z,33472
2019-03-25T15:03:20.744Z,8632
2019-03-25T15:04:30.882Z,7080
2019-03-25T15:05:41.024Z,9716
2019-03-25T15:06:51.166Z,35808
2019-03-25T15:08:01.327Z,11508
2019-03-25T15:09:11.467Z,8672
2019-03-25T15:10:21.613Z,8500
2019-03-25T15:11:31.754Z,9840
2019-03-25T15:12:41.910Z,8768
2019-03-25T15:13:52.043Z,5640
2019-03-25T15:15:02.174Z,8248
2019-03-25T15:16:12.321Z,29504
2019-03-25T15:17:22.463Z,29824
2019-03-25T15:18:32.356Z,30880
2019-03-25T15:19:42.500Z,30528
2019-03-25T15:20:52.624Z,29824
2019-03-25T15:22:02.455Z,29824
2019-03-25T15:23:12.632Z,28768
2019-03-25T15:24:22.776Z,12496
2019-03-25T15:25:32.916Z,23456
2019-03-25T15:26:43.046Z,24896
2019-03-25T15:27:53.200Z,23936
2019-03-25T15:29:03.331Z,23136
2019-03-25T15:30:13.508Z,22816
2019-03-25T15:31:23.717Z,21568
2019-03-25T15:32:33.636Z,21984
2019-03-25T15:33:43.768Z,21344
2019-03-25T15:34:53.904Z,20896
2019-03-25T15:36:04.055Z,19648
2019-03-25T15:37:14.170Z,17280
2019-03-25T15:38:25.506Z,15072
2019-03-25T15:39:46.079Z,16448
2019-03-25T15:40:56.418Z,18656
2019-03-25T15:42:06.568Z,18080
2019-03-25T15:43:16.718Z,10124
2019-03-25T15:44:26.856Z,17664
2019-03-25T15:45:36.992Z,4508
2019-03-25T15:46:57.768Z,5460
2019-03-25T15:48:07.922Z,5368
2019-03-25T15:49:18.047Z,16736
2019-03-25T15:50:28.306Z,7076
2019-03-25T15:51:38.445Z,6912
2019-03-25T15:52:48.623Z,18784
2019-03-25T15:53:58.759Z,18304
2019-03-25T15:55:08.891Z,17152
2019-03-25T15:56:19.025Z,7692
2019-03-25T15:57:29.154Z,7308
2019-03-25T15:58:39.312Z,7188